Flight Track Log - Related Links

Times and Time Zones

All times are in EDT time to prevent confusion due to time zone crossing. See the SWA561 flight status page for this flight to view local times or setup timezone preferences in your user account.

Time Position Orientation Groundspeed Altitude Reporting Facility
EDT Latitude Longitude Course Direction KTS MPH feet Rate Location/Type
Tue 05:10:56 PM 39.1833 -76.7500 322° Northwest 201 231 2,500  Level Potomac TRACON
Tue 05:11:56 PM 39.2000 -76.8333 284° West 237 273 4,900 2,750 Climbing Potomac TRACON
Tue 05:12:56 PM 39.2167 -76.9167 284° West 261 300 8,000 2,850 Climbing Potomac TRACON
Tue 05:13:56 PM 39.2500 -77.0000 297° West 263 303 10,600 2,393 Climbing Potomac TRACON
Tue 05:15:59 PM 39.3361 -77.1989 299° West 313 360 15,300 2,283 Climbing Washington Center
Tue 05:16:00 PM 39.3365 -77.2698 322° Northwest  Level FlightAware Approximate
Tue 05:17:00 PM 39.3953 -77.3050 306° West 343 395 17,600  Level Washington Center
Tue 05:17:58 PM 39.4561 -77.4111 307° West 360 414 20,200 2,370 Climbing Washington Center
Tue 05:18:59 PM 39.5189 -77.5258 305° West 378 435 22,300 1,967 Climbing Washington Center
Tue 05:20:00 PM 39.5878 -77.6514 305° West 390 449 24,200 2,319 Climbing Washington Center
Tue 05:20:58 PM 39.6544 -77.7639 308° West 407 468 26,900 1,084 Climbing Washington Center
Tue 05:22:35 PM 39.7658 -77.9606 306° West 408 470 27,000 535 Climbing Cleveland Center
Tue 05:23:35 PM 39.8311 -78.0797 306° West 408 470 28,300 1,500 Climbing Cleveland Center
Tue 05:24:35 PM 39.9025 -78.1989 308° West 413 475 30,000 750 Climbing Cleveland Center
Tue 05:25:35 PM 39.9408 -78.3436 289° West 413 475 29,800 -600 Descending Cleveland Center
Tue 05:26:35 PM 39.9792 -78.4861 289° West 413 475 28,800 -1,050 Descending Cleveland Center
Tue 05:27:35 PM 40.0147 -78.6206 289° West 406 467 27,700 -950 Descending Cleveland Center
Tue 05:28:35 PM 40.0525 -78.7550 290° West 400 460 26,900 -850 Descending Cleveland Center
Tue 05:29:35 PM 40.0922 -78.8978 290° West 405 466 26,000 -950 Descending Cleveland Center
Tue 05:30:35 PM 40.1319 -79.0461 289° West 418 481 25,000 -1,000 Descending Cleveland Center
Tue 05:31:35 PM 40.1711 -79.1892 290° West 423 487 24,000 -500 Descending Cleveland Center
Tue 05:32:35 PM 40.2103 -79.3325 290° West 423 487 24,000  Level Cleveland Center
Tue 05:33:35 PM 40.2472 -79.4733 289° West 423 487 24,000  Level Cleveland Center
Tue 05:34:35 PM 40.2842 -79.6169 289° West 423 487 24,000  Level Cleveland Center
Tue 05:35:35 PM 40.3206 -79.7553 289° West 423 487 24,000  Level Cleveland Center
Tue 05:36:35 PM 40.3592 -79.8992 289° West 423 487 24,000  Level Cleveland Center
Tue 05:37:35 PM 40.3931 -80.0433 287° West 423 487 24,000  Level Cleveland Center
Tue 05:38:35 PM 40.4272 -80.1875 287° West 418 481 24,000  Level Cleveland Center
Tue 05:39:35 PM 40.4650 -80.3294 289° West 418 481 24,000 -250 Level Cleveland Center
Tue 05:40:35 PM 40.5092 -80.4847 291° West 418 481 23,500 -800 Descending Cleveland Center
Tue 05:41:35 PM 40.5425 -80.6186 288° West 408 470 22,400 -1,050 Descending Cleveland Center
Tue 05:42:35 PM 40.5714 -80.7444 287° West 383 441 21,400 -1,000 Descending Cleveland Center
Tue 05:43:35 PM 40.5942 -80.8756 283° West 369 425 20,400 -1,000 Descending Cleveland Center
Tue 05:44:35 PM 40.6292 -80.9936 291° West 363 418 19,400 -950 Descending Cleveland Center
Tue 05:45:35 PM 40.6664 -81.1006 295° West 358 412 18,500 -1,000 Descending Cleveland Center
Tue 05:46:35 PM 40.7117 -81.2075 299° West 346 398 17,400 -1,050 Descending Cleveland Center
Tue 05:47:35 PM 40.7569 -81.3014 303° West 317 365 16,400 -1,000 Descending Cleveland Center
Tue 05:48:35 PM 40.8150 -81.3733 317° Northwest 297 342 15,400 -1,400 Descending Cleveland Center
Tue 05:49:35 PM 40.8600 -81.4725 301° West 287 330 13,600 -1,850 Descending Cleveland Center
Tue 05:50:35 PM 40.8947 -81.5664 296° West 282 325 11,700 -1,800 Descending Cleveland Center
Tue 05:51:35 PM 40.9333 -81.6606 299° West 282 325 10,000 -850 Descending Cleveland Center
Tue 05:52:35 PM 40.9975 -81.7194 325° Northwest 276 318 10,000  Level Cleveland Center
Tue 05:53:35 PM 41.0744 -81.7456 346° North 276 318 10,000 -350 Level Cleveland Center
Tue 05:54:35 PM 41.1492 -81.7550 355° North 270 311 9,300 -850 Descending Cleveland Center
Tue 05:55:35 PM 41.2264 -81.7536 North 270 311 8,300 -950 Descending Cleveland Center
Tue 05:56:35 PM 41.2975 -81.7494 North 275 316 7,400 -583 Descending Cleveland Center
Tue 05:57:59 PM 41.3919 -81.6708 32° Northeast 233 268 6,900 -621 Descending Cleveland Center
Tue 05:59:00 PM 41.4425 -81.6192 37° Northeast 232 267 5,900 -1,279 Descending Cleveland Center
Tue 06:00:01 PM 41.4881 -81.6419 339° North 197 227 4,300 -1,574 Descending Cleveland Center

Login

Don't have an account? Register now (free) for customized features, flight alerts, and more!